createdAt,value
2023-03-16T00:02:25.478Z,23.50
2023-03-16T00:05:28.836Z,26.50
2023-03-16T00:08:33.572Z,24.60
2023-03-16T00:11:36.945Z,24.75
2023-03-16T00:14:40.170Z,25.60
2023-03-16T00:17:48.460Z,29.60
2023-03-16T00:20:53.008Z,26.50
2023-03-16T00:23:57.793Z,25.75
2023-03-16T00:27:01.162Z,25.40
2023-03-16T00:30:05.296Z,29.60
2023-03-16T00:33:08.587Z,24.60
2023-03-16T00:36:12.480Z,25.00
2023-03-16T00:39:17.176Z,24.67
2023-03-16T00:42:21.315Z,22.75
2023-03-16T00:45:25.148Z,24.00
2023-03-16T00:48:28.431Z,28.25
2023-03-16T00:51:34.031Z,23.00
2023-03-16T00:54:38.683Z,24.20
2023-03-16T00:57:41.929Z,26.00
2023-03-16T01:00:46.089Z,28.00
2023-03-16T01:03:49.383Z,23.00
2023-03-16T01:06:52.959Z,22.00
2023-03-16T01:09:58.322Z,27.00
2023-03-16T01:13:03.653Z,25.75
2023-03-16T01:16:07.880Z,25.20
2023-03-16T01:19:12.691Z,23.00
2023-03-16T01:22:16.764Z,27.75
2023-03-16T01:25:21.795Z,27.00
2023-03-16T01:28:26.819Z,29.40
2023-03-16T01:31:32.304Z,24.75
2023-03-16T01:34:36.089Z,27.75
2023-03-16T01:37:41.533Z,24.75
2023-03-16T01:40:53.940Z,26.75
2023-03-16T01:43:58.652Z,26.00
2023-03-16T01:47:03.009Z,26.00
2023-03-16T01:50:07.804Z,29.40
2023-03-16T01:53:14.563Z,25.00
2023-03-16T01:56:24.800Z,32.00
2023-03-16T01:59:33.576Z,24.00
2023-03-16T02:02:39.907Z,25.00
2023-03-16T02:05:47.162Z,25.20
2023-03-16T02:08:55.487Z,25.60
2023-03-16T02:12:01.617Z,28.60
2023-03-16T02:15:07.133Z,27.20
2023-03-16T02:18:11.058Z,24.00
2023-03-16T02:21:25.542Z,24.40
2023-03-16T02:24:29.084Z,26.60
2023-03-16T02:27:42.250Z,24.25
2023-03-16T02:30:47.938Z,28.50
2023-03-16T02:33:53.669Z,31.00
2023-03-16T02:36:59.703Z,30.00
2023-03-16T02:40:21.429Z,41.60
2023-03-16T02:43:33.462Z,37.20
2023-03-16T02:47:03.543Z,41.60
2023-03-16T02:50:08.595Z,42.20
2023-03-16T02:53:11.840Z,44.00
2023-03-16T02:56:15.153Z,49.00
2023-03-16T02:59:18.505Z,47.80
2023-03-16T03:02:23.788Z,44.80
2023-03-16T03:05:27.342Z,45.50
2023-03-16T03:08:32.983Z,48.60
2023-03-16T03:11:36.299Z,48.00
2023-03-16T03:14:39.893Z,48.60
2023-03-16T03:17:45.710Z,52.60
2023-03-16T03:20:49.038Z,50.00
2023-03-16T03:23:53.929Z,49.40
2023-03-16T03:26:57.181Z,50.80
2023-03-16T03:30:00.874Z,52.00
2023-03-16T03:33:06.989Z,54.80
2023-03-16T03:36:11.414Z,51.50
2023-03-16T03:39:17.308Z,49.00
2023-03-16T03:42:23.941Z,52.00
2023-03-16T03:45:27.706Z,49.00
2023-03-16T03:48:32.674Z,50.50
2023-03-16T03:51:36.869Z,53.00
2023-03-16T03:54:44.272Z,52.00
2023-03-16T03:57:51.179Z,51.40
2023-03-16T04:00:54.425Z,50.80
2023-03-16T04:03:59.328Z,50.00
2023-03-16T04:07:03.931Z,52.60
2023-03-16T04:10:08.655Z,55.20
2023-03-16T04:13:16.020Z,55.00
2023-03-16T04:16:19.490Z,53.40
2023-03-16T04:19:27.582Z,57.50
2023-03-16T04:22:32.080Z,56.40
2023-03-16T04:25:38.485Z,57.67
2023-03-16T04:28:43.378Z,56.20
2023-03-16T04:31:51.077Z,54.75
2023-03-16T04:34:56.742Z,54.40
2023-03-16T04:38:10.984Z,55.00
2023-03-16T04:41:21.951Z,52.20
2023-03-16T04:44:33.068Z,58.20
2023-03-16T04:47:37.922Z,57.50
2023-03-16T04:50:43.607Z,53.00
2023-03-16T04:53:47.055Z,53.00
2023-03-16T04:56:58.046Z,54.00
2023-03-16T05:00:33.724Z,55.80
2023-03-16T05:03:44.745Z,54.20
2023-03-16T05:06:50.092Z,54.25
2023-03-16T05:09:57.002Z,53.00
2023-03-16T05:13:00.934Z,54.40
2023-03-16T05:16:05.032Z,56.00
2023-03-16T05:19:13.071Z,55.00
2023-03-16T05:22:17.984Z,54.40
2023-03-16T05:25:51.763Z,53.00
2023-03-16T05:28:58.397Z,53.40
2023-03-16T05:32:03.866Z,54.80
2023-03-16T05:35:08.946Z,50.60
2023-03-16T05:38:14.133Z,54.25
2023-03-16T05:41:21.515Z,52.20
2023-03-16T05:44:38.482Z,52.50
2023-03-16T05:47:55.987Z,57.20
2023-03-16T05:50:59.413Z,52.20
2023-03-16T05:54:06.901Z,55.60
2023-03-16T05:57:19.087Z,54.50
2023-03-16T06:00:27.806Z,52.00
2023-03-16T06:03:42.468Z,53.00
2023-03-16T06:06:50.390Z,53.00
2023-03-16T06:09:59.283Z,56.00
2023-03-16T06:13:04.048Z,52.60
2023-03-16T06:16:09.104Z,51.50
2023-03-16T06:19:13.047Z,52.00
2023-03-16T06:22:18.586Z,56.00
2023-03-16T06:25:24.197Z,53.00
2023-03-16T06:28:28.556Z,54.50
2023-03-16T06:31:34.128Z,49.00
2023-03-16T06:34:38.949Z,53.67
2023-03-16T06:37:43.522Z,49.20
2023-03-16T06:41:19.419Z,49.40
2023-03-16T06:44:24.135Z,50.40
2023-03-16T06:47:34.960Z,49.00
2023-03-16T06:50:39.171Z,50.60
2023-03-16T06:53:43.071Z,49.00
2023-03-16T06:56:47.961Z,49.00
2023-03-16T06:59:51.346Z,44.50
2023-03-16T07:02:54.642Z,43.50
2023-03-16T07:05:58.289Z,45.60
2023-03-16T07:09:01.705Z,44.75
2023-03-16T07:12:08.676Z,47.00
2023-03-16T07:15:12.488Z,46.25
2023-03-16T07:18:16.517Z,42.25
2023-03-16T07:21:20.300Z,43.50
2023-03-16T07:24:24.389Z,47.00
2023-03-16T07:27:30.017Z,49.80
2023-03-16T07:30:35.218Z,44.60
2023-03-16T07:33:38.797Z,47.20
2023-03-16T07:36:44.712Z,47.20
2023-03-16T07:39:48.220Z,43.60
2023-03-16T07:42:55.783Z,39.50
2023-03-16T07:46:04.283Z,45.00
2023-03-16T07:49:09.731Z,41.00
2023-03-16T07:52:14.788Z,43.75
2023-03-16T07:55:19.878Z,43.60
2023-03-16T07:58:25.322Z,43.00
2023-03-16T08:01:28.998Z,45.00
2023-03-16T08:04:32.661Z,42.00
2023-03-16T08:07:37.023Z,45.00
2023-03-16T08:10:49.357Z,45.80
2023-03-16T08:13:57.371Z,39.00
2023-03-16T08:17:08.436Z,41.25
2023-03-16T08:20:15.068Z,40.60
2023-03-16T08:23:19.561Z,31.60
2023-03-16T08:26:24.650Z,31.00
2023-03-16T08:29:34.586Z,29.00
2023-03-16T08:32:41.142Z,28.00
2023-03-16T08:35:45.999Z,19.80
2023-03-16T08:39:05.576Z,23.80
2023-03-16T08:42:15.285Z,28.40
2023-03-16T08:45:24.407Z,25.00
2023-03-16T08:48:29.015Z,28.00
2023-03-16T08:51:32.697Z,26.00
2023-03-16T08:54:35.948Z,22.80
2023-03-16T08:57:39.953Z,29.50
2023-03-16T09:00:46.821Z,24.80
2023-03-16T09:03:51.519Z,25.00
2023-03-16T09:07:07.923Z,28.40
2023-03-16T09:10:15.518Z,32.75
2023-03-16T09:13:19.362Z,26.60
2023-03-16T09:16:28.221Z,25.00
2023-03-16T09:19:47.856Z,26.40
2023-03-16T09:22:53.653Z,19.40
2023-03-16T09:25:59.446Z,19.75
2023-03-16T09:29:03.519Z,22.00
2023-03-16T09:32:09.026Z,28.00
2023-03-16T09:35:12.525Z,24.00
2023-03-16T09:38:17.744Z,22.60
2023-03-16T09:41:38.658Z,24.00
2023-03-16T09:44:51.588Z,23.40
2023-03-16T09:48:02.637Z,20.00
2023-03-16T09:51:12.024Z,21.20
2023-03-16T09:54:27.765Z,17.80
2023-03-16T09:57:34.833Z,20.00
2023-03-16T10:00:42.631Z,16.25
2023-03-16T10:04:02.879Z,16.80
2023-03-16T10:07:20.421Z,17.00
2023-03-16T10:10:42.326Z,21.40
2023-03-16T10:13:52.677Z,18.60
2023-03-16T10:17:00.668Z,16.60
2023-03-16T10:20:09.393Z,17.00
2023-03-16T10:23:19.180Z,15.40
2023-03-16T10:26:26.997Z,14.40
2023-03-16T10:29:33.025Z,13.00
2023-03-16T10:32:36.920Z,15.00
2023-03-16T10:35:48.362Z,15.00
2023-03-16T10:38:55.434Z,12.00
2023-03-16T10:42:00.361Z,12.80
2023-03-16T10:45:04.109Z,13.00
2023-03-16T10:48:09.138Z,16.00
2023-03-16T10:51:16.622Z,14.00
2023-03-16T10:54:29.439Z,12.00
2023-03-16T10:57:35.242Z,12.00
2023-03-16T11:00:43.238Z,13.80
2023-03-16T11:03:51.319Z,10.60
2023-03-16T11:06:58.068Z,12.50
2023-03-16T11:10:01.929Z,11.00
2023-03-16T11:13:10.622Z,10.40
2023-03-16T11:16:25.401Z,12.00
2023-03-16T11:19:31.045Z,9.80
2023-03-16T11:22:35.479Z,11.25
2023-03-16T11:25:47.018Z,9.00
2023-03-16T11:28:59.292Z,9.40
2023-03-16T11:32:07.404Z,10.60
2023-03-16T11:35:16.461Z,10.20
2023-03-16T11:38:22.847Z,14.00
2023-03-16T11:41:37.538Z,15.00
2023-03-16T11:44:51.899Z,15.00
2023-03-16T11:48:11.499Z,13.60
2023-03-16T11:51:30.552Z,13.00
2023-03-16T11:54:48.704Z,15.00
2023-03-16T11:58:04.669Z,15.00
2023-03-16T12:01:18.659Z,14.00
2023-03-16T12:04:45.140Z,15.20
2023-03-16T12:08:01.681Z,14.00
2023-03-16T12:11:08.397Z,14.00
2023-03-16T12:14:18.312Z,15.75
2023-03-16T12:17:26.968Z,15.00
2023-03-16T12:20:35.836Z,12.00
2023-03-16T12:23:42.860Z,12.80
2023-03-16T12:26:49.679Z,14.00
2023-03-16T12:30:02.519Z,14.00
2023-03-16T12:33:15.664Z,9.80
2023-03-16T12:36:47.765Z,10.00
2023-03-16T12:40:08.002Z,13.40
2023-03-16T12:43:29.625Z,10.60
2023-03-16T12:46:43.179Z,8.75
2023-03-16T12:49:46.812Z,12.25
2023-03-16T12:52:51.903Z,11.00
2023-03-16T12:55:56.630Z,11.40
2023-03-16T12:59:04.183Z,6.00
2023-03-16T13:02:17.655Z,5.00
2023-03-16T13:05:32.357Z,8.40
2023-03-16T13:08:44.063Z,8.80
2023-03-16T13:11:51.321Z,8.60
2023-03-16T13:14:57.099Z,8.40
2023-03-16T13:18:23.177Z,11.00
2023-03-16T13:21:37.687Z,9.00
2023-03-16T13:24:41.314Z,11.40
2023-03-16T13:27:47.333Z,8.00
2023-03-16T13:30:51.798Z,10.00
2023-03-16T13:34:00.008Z,9.50
2023-03-16T13:37:04.288Z,11.00
2023-03-16T13:40:20.293Z,11.40
2023-03-16T13:43:25.435Z,12.00
2023-03-16T13:46:31.767Z,11.00
2023-03-16T13:49:35.424Z,7.00
2023-03-16T13:52:39.142Z,10.60
2023-03-16T13:55:45.422Z,6.00
2023-03-16T13:58:50.829Z,7.50
2023-03-16T14:01:59.808Z,7.00
2023-03-16T14:05:11.657Z,7.00
2023-03-16T14:08:19.631Z,7.00
2023-03-16T14:11:22.770Z,5.60
2023-03-16T14:14:29.373Z,6.40
2023-03-16T14:17:34.052Z,5.00
2023-03-16T14:20:41.359Z,7.00
2023-03-16T14:23:47.857Z,6.00
2023-03-16T14:26:50.998Z,6.00
2023-03-16T14:30:00.691Z,7.00
2023-03-16T14:33:07.320Z,9.40
2023-03-16T14:36:15.963Z,7.20
2023-03-16T14:39:22.474Z,6.00
2023-03-16T14:42:29.388Z,6.00
2023-03-16T14:45:34.901Z,7.00
2023-03-16T14:48:41.528Z,8.00
2023-03-16T14:51:46.983Z,8.00
2023-03-16T14:54:53.617Z,8.00
2023-03-16T14:57:56.808Z,7.00
2023-03-16T15:01:00.489Z,6.00
2023-03-16T15:04:06.037Z,8.33
2023-03-16T15:07:24.002Z,7.00
2023-03-16T15:10:30.465Z,6.00
2023-03-16T15:13:53.059Z,7.00
2023-03-16T15:16:56.366Z,10.25
2023-03-16T15:20:01.263Z,6.00
2023-03-16T15:23:05.129Z,8.00
2023-03-16T15:26:10.133Z,9.20
2023-03-16T15:29:14.917Z,8.25
2023-03-16T15:32:18.162Z,8.00
2023-03-16T15:35:22.810Z,6.40
2023-03-16T15:38:29.134Z,7.33
2023-03-16T15:41:38.278Z,7.00
2023-03-16T15:44:45.054Z,6.00
2023-03-16T15:47:49.160Z,5.00
2023-03-16T15:50:56.112Z,6.00
2023-03-16T15:54:02.125Z,6.00
2023-03-16T15:57:05.793Z,5.40
2023-03-16T16:00:28.421Z,5.60
2023-03-16T16:03:31.945Z,7.00
2023-03-16T16:06:36.371Z,9.00
2023-03-16T16:09:39.578Z,5.00
2023-03-16T16:12:42.820Z,7.00
2023-03-16T16:15:47.282Z,7.00
2023-03-16T16:18:50.875Z,6.75
2023-03-16T16:21:55.319Z,8.00
2023-03-16T16:24:58.462Z,6.75
2023-03-16T16:28:01.656Z,6.75
2023-03-16T16:31:11.176Z,7.80
2023-03-16T16:34:15.994Z,8.00
2023-03-16T16:37:20.402Z,7.00
2023-03-16T16:40:26.000Z,6.00
2023-03-16T16:43:35.466Z,8.00
2023-03-16T16:46:41.489Z,8.50
2023-03-16T16:49:44.525Z,9.00
2023-03-16T16:52:50.100Z,7.25
2023-03-16T16:55:53.419Z,8.75
2023-03-16T16:58:58.128Z,6.20
2023-03-16T17:02:03.298Z,11.40
2023-03-16T17:05:06.702Z,10.60
2023-03-16T17:08:12.685Z,10.25
2023-03-16T17:11:19.959Z,9.00
2023-03-16T17:14:27.646Z,9.75
2023-03-16T17:17:30.956Z,12.40
2023-03-16T17:20:34.473Z,12.20
2023-03-16T17:23:39.039Z,10.20
2023-03-16T17:26:44.853Z,15.00
2023-03-16T17:29:47.846Z,9.00
2023-03-16T17:32:52.235Z,10.00
2023-03-16T17:35:55.432Z,10.50
2023-03-16T17:39:02.206Z,9.40
2023-03-16T17:42:08.209Z,11.60
2023-03-16T17:45:18.420Z,14.00
2023-03-16T17:48:23.899Z,12.00
2023-03-16T17:51:27.447Z,14.00
2023-03-16T17:54:32.071Z,11.50
2023-03-16T17:57:35.356Z,13.00
2023-03-16T18:00:39.531Z,13.40
2023-03-16T18:03:44.370Z,11.50
2023-03-16T18:06:48.191Z,14.00
2023-03-16T18:09:53.603Z,11.20
2023-03-16T18:13:00.761Z,13.20
2023-03-16T18:16:05.866Z,12.60
2023-03-16T18:19:25.852Z,15.75
2023-03-16T18:22:29.459Z,15.00
2023-03-16T18:25:39.065Z,15.00
2023-03-16T18:28:43.847Z,14.40
2023-03-16T18:31:48.595Z,14.40
2023-03-16T18:34:52.813Z,16.00
2023-03-16T18:37:56.624Z,17.80
2023-03-16T18:41:03.346Z,14.00
2023-03-16T18:44:18.461Z,16.60
2023-03-16T18:47:31.393Z,18.00
2023-03-16T18:50:34.651Z,19.50
2023-03-16T18:53:37.971Z,19.00
2023-03-16T18:56:42.396Z,17.00
2023-03-16T18:59:45.817Z,19.80
2023-03-16T19:02:54.307Z,22.40
2023-03-16T19:05:59.874Z,21.40
2023-03-16T19:09:08.184Z,19.60
2023-03-16T19:12:17.169Z,23.00
2023-03-16T19:15:23.045Z,20.00
2023-03-16T19:18:26.697Z,21.00
2023-03-16T19:21:29.813Z,19.60
2023-03-16T19:24:36.744Z,16.75
2023-03-16T19:27:41.852Z,22.80
2023-03-16T19:30:46.669Z,21.00
2023-03-16T19:33:51.999Z,24.40
2023-03-16T19:36:55.076Z,23.50
2023-03-16T19:39:58.107Z,26.00
2023-03-16T19:43:02.590Z,22.00
2023-03-16T19:46:06.151Z,22.00
2023-03-16T19:49:16.660Z,25.50
2023-03-16T19:52:21.171Z,24.80
2023-03-16T19:55:28.409Z,25.20
2023-03-16T19:58:38.529Z,24.75
2023-03-16T20:01:42.056Z,23.50
2023-03-16T20:04:45.312Z,23.60
2023-03-16T20:07:49.060Z,26.75
2023-03-16T20:10:52.860Z,26.20
2023-03-16T20:13:59.545Z,27.80
2023-03-16T20:17:02.945Z,27.40
2023-03-16T20:20:07.667Z,27.20
2023-03-16T20:23:20.316Z,32.25
2023-03-16T20:26:27.070Z,26.50
2023-03-16T20:29:32.804Z,33.60
2023-03-16T20:32:36.905Z,25.00
2023-03-16T20:35:40.036Z,29.60
2023-03-16T20:38:43.262Z,30.25
2023-03-16T20:41:46.642Z,32.40
2023-03-16T20:44:52.108Z,38.20
2023-03-16T20:47:55.863Z,40.50
2023-03-16T20:51:00.141Z,36.25
2023-03-16T20:54:03.285Z,35.00
2023-03-16T20:57:07.980Z,36.20
2023-03-16T21:00:26.807Z,36.20
2023-03-16T21:03:33.411Z,34.00
2023-03-16T21:06:36.482Z,38.60
2023-03-16T21:09:39.822Z,34.40
2023-03-16T21:12:45.888Z,41.00
2023-03-16T21:15:51.090Z,33.80
2023-03-16T21:18:54.652Z,36.50
2023-03-16T21:21:57.720Z,39.60
2023-03-16T21:25:01.188Z,34.40
2023-03-16T21:28:06.092Z,35.60
2023-03-16T21:31:19.697Z,33.75
2023-03-16T21:34:25.217Z,34.00
2023-03-16T21:37:30.404Z,37.25
2023-03-16T21:40:33.470Z,32.40
2023-03-16T21:43:36.787Z,34.50
2023-03-16T21:46:41.257Z,31.25
2023-03-16T21:49:44.726Z,34.50
2023-03-16T21:52:48.220Z,39.00
2023-03-16T21:55:52.284Z,31.20
2023-03-16T21:58:57.350Z,32.00
2023-03-16T22:02:02.590Z,32.25
2023-03-16T22:05:23.688Z,30.40
2023-03-16T22:08:29.106Z,31.60
2023-03-16T22:11:32.981Z,33.80
2023-03-16T22:14:35.964Z,32.60
2023-03-16T22:17:40.794Z,30.75
2023-03-16T22:20:44.059Z,29.80
2023-03-16T22:23:47.278Z,30.00
2023-03-16T22:26:50.749Z,37.00
2023-03-16T22:29:54.176Z,34.20
2023-03-16T22:33:01.240Z,29.75
2023-03-16T22:36:08.320Z,38.75
2023-03-16T22:39:15.131Z,40.60
2023-03-16T22:42:27.998Z,39.00
2023-03-16T22:45:34.316Z,34.40
2023-03-16T22:48:38.877Z,42.00
2023-03-16T22:51:42.147Z,39.40
2023-03-16T22:54:47.870Z,35.00
2023-03-16T22:57:52.777Z,39.00
2023-03-16T23:00:56.074Z,38.80
2023-03-16T23:04:00.742Z,36.75
2023-03-16T23:07:03.778Z,43.60
2023-03-16T23:10:08.246Z,44.60
2023-03-16T23:13:15.714Z,41.60
2023-03-16T23:16:21.851Z,41.60
2023-03-16T23:19:29.854Z,47.00
2023-03-16T23:22:33.237Z,44.00
2023-03-16T23:25:37.165Z,46.25
2023-03-16T23:28:41.809Z,49.00
2023-03-16T23:31:44.900Z,50.00
2023-03-16T23:34:49.318Z,49.20
2023-03-16T23:37:53.176Z,48.60
2023-03-16T23:40:56.407Z,49.40
2023-03-16T23:43:59.526Z,50.00
2023-03-16T23:47:02.709Z,49.00
2023-03-16T23:50:11.928Z,50.40
2023-03-16T23:53:17.854Z,49.00
2023-03-16T23:56:21.651Z,47.00
2023-03-16T23:59:25.799Z,48.00
